Aeroporto :
LOGIN :

Iscrizione | Disclaimer

   EN    FR    IT 

 










Sommario :    VFR   VFR Marginale   IFR   IFR Intensivo   IFR Molto Intensivo
Visibilità : 
Base nubi : 
>= 8 km
>= 3000ft
5 / 8 km
1000 / 3000 ft
1500m / 5 km
500 / 1000 ft
800 / 1500m
200 / 500 ft
< 800m
< 200 ft
Simboli :   Temporali  Nebbia  Neve Forte  Precipitazioni Forti  Vento > 20 kt
SIGMETs :   Varie  Temporali  Ghiacco  Turbolenza  Onda orograficha  Ceneri Vulcaniche






- Altitudine del aeroporto : 327 ft
- Codice IATA : BHX


EGBB - Birmingham

ULTIMO METAR :
  • 171420Z 01006KT 320V030 3600 DZRA BKN006 08/07 Q1012 RERA REDZ

METARs OBSOLETI :
  • 171350Z 35008KT 6000 DZ BKN006 08/07 Q1011 REDZ
  • 171320Z 36007KT 6000 1800NE -DZRA BKN006 08/07 Q1011
  • 171250Z 34008KT 6000 VCSH BKN009 08/07 Q1011
  • 171220Z 33008KT 7000 BKN010 08/07 Q1011
  • 171150Z 34005KT 7000 BKN010 08/07 Q1011

TAF AMD TAF EGBB
Valido dal 17 a 13 ore il 18 a 12 ore UTC


171353Z 1713/1812 35006KT 8000 -RA BKN006
TEMPO 1713/1724 4000 RADZ BR BKN004
BECMG 1721/1724 9999 NSW FEW006 SCT030
PROB30
TEMPO 1800/1809 8000 BKN006
ATIS : +44 121 780 0910



MetMap, La meteo Aeronautica in un colpo d'occhio ! - Copyright ORBIFLY Dicembre 2007 - Disclaimer

ORBIFLY MET'MAP TEAM :

Programmazione e sviluppo : Alexandra Zaïnal
Concezione e sviluppo : Baudouin d'Aumeries
Co-Programmazione e sviluppo : Marc-Olivier Méhu
Supporto tecnico e logistico : Manuel Goepfert
Aiuto per la traduzione : Arnaldo La Scala

Contatto : metmap@orbifly.com




FONTI E CREDITI :

   NOAA